• Join FlightAware (Why Join?)
  • Login
  • US Flag 
07:20AM EDT


 

Airport Tracker/Info


-or-


 

Live Flight TrackerFlight Track Log ✈ SWA554 ✈ 12-Apr-2013 ✈ KLAS - KPHX

Flight Track Log - Related Links

Times and Time Zones

All times are in EDT time to prevent confusion due to time zone crossing. See the SWA554 flight status page for this flight to view local times or setup timezone preferences in your user account.

Time Position Orientation Groundspeed Altitude Reporting Facility
EDT Latitude Longitude Course Direction KTS MPH feet Rate Location/Type
09:10AM 36.0756 -115.1658 267° West 163 188 3,400  Level Los Angeles Center
09:11AM 36.0719 -115.2386 267° West 227 261 5,900 2,280 Climbing Los Angeles Center
09:12AM 36.0494 -115.2642 223° Southwest 257 296 6,800 1,140 Climbing Los Angeles Center
09:12AM 36.0061 -115.2842 200° South 286 329 7,100 300 Climbing Los Angeles Center
09:13AM 35.9742 -115.2953 196° South 281 323 7,100 1,200 Level Los Angeles Center
09:14AM 35.9100 -115.2786 168° South 278 320 8,700 2,400 Climbing Los Angeles Center
09:14AM 35.8631 -115.2408 147° Southeast 301 346 10,900 3,000 Climbing Los Angeles Center
09:15AM 35.8511 -115.1936 107° East 305 351 12,300 3,480 Climbing Los Angeles Center
09:16AM 35.8231 -115.0797 107° East 341 392 16,100 3,720 Climbing Los Angeles Center
09:17AM 35.8294 -114.9553 86° East 364 419 19,900 3,420 Climbing Los Angeles Center
09:18AM 35.8394 -114.8256 85° East 377 434 23,100 3,120 Climbing Los Angeles Center
09:19AM 35.8497 -114.6881 85° East 396 456 26,300 2,880 Climbing Los Angeles Center
09:20AM 35.8331 -114.5531 99° East 411 473 29,000 1,320 Climbing Los Angeles Center
09:21AM 35.7703 -114.4364 124° Southeast 411 473 29,000  Level Los Angeles Center
09:22AM 35.7086 -114.3197 123° Southeast 407 468 29,000  Level Los Angeles Center
09:23AM 35.6597 -114.2289 124° Southeast 406 467 29,000  Level Los Angeles Center
09:24AM 35.5858 -114.0889 123° Southeast 408 470 29,000  Level Los Angeles Center
09:25AM 35.5244 -113.9756 124° Southeast 403 464 29,000  Level Los Angeles Center
09:26AM 35.4433 -113.8464 128° Southeast 401 461 29,000  Level Los Angeles Center
09:27AM 35.3658 -113.7511 135° Southeast 399 459 29,000  Level Los Angeles Center
09:28AM 35.2839 -113.6439 133° Southeast 429 494 29,000  Level Los Angeles Center
09:29AM 35.1981 -113.5333 134° Southeast 450 518 29,000  Level Los Angeles Center
09:30AM 35.1117 -113.4233 134° Southeast 454 522 29,000  Level Los Angeles Center
09:31AM 35.0242 -113.3131 134° Southeast 458 527 29,000  Level Albuquerque Center
09:32AM 34.9200 -113.1778 133° Southeast 461 531 29,000  Level Albuquerque Center
09:33AM 34.8328 -113.0681 134° Southeast 459 528 29,000  Level Albuquerque Center
09:34AM 34.7469 -112.9592 134° Southeast 453 521 29,000  Level Albuquerque Center
09:35AM 34.6592 -112.8506 134° Southeast 453 521 29,000 -900 Level Albuquerque Center
09:36AM 34.5733 -112.7417 134° Southeast 451 519 27,200 -2,100 Descending Albuquerque Center
09:37AM 34.4917 -112.6386 134° Southeast 435 501 24,800 -2,520 Descending Albuquerque Center
09:38AM 34.4061 -112.5328 134° Southeast 415 478 22,200 -2,460 Descending Albuquerque Center
09:39AM 34.3300 -112.4389 134° Southeast 398 458 19,900 -2,280 Descending Albuquerque Center
09:40AM 34.2572 -112.3486 134° Southeast 382 440 17,600 -2,340 Descending Albuquerque Center
09:41AM 34.1867 -112.2611 134° Southeast 369 425 15,200 -2,280 Descending Albuquerque Center
09:42AM 34.1189 -112.1772 134° Southeast 354 407 13,000 -1,620 Descending Albuquerque Center
09:43AM 34.0364 -112.1417 160° South 331 381 12,000 -1,080 Descending Albuquerque Center
09:44AM 33.9497 -112.1517 185° South 318 366 10,900 -1,140 Descending Albuquerque Center
09:45AM 33.8458 -112.1686 188° South 311 358 9,800 -1,260 Descending Albuquerque Center
09:46AM 33.7636 -112.1861 190° South 303 349 8,400 -1,440 Descending Albuquerque Center
09:47AM 33.6861 -112.2019 190° South 288 331 6,900 -1,260 Descending Albuquerque Center
09:48AM 33.6114 -112.2039 181° South 272 313 5,900 -720 Descending Albuquerque Center
09:49AM 33.5458 -112.2064 182° South 241 277 5,500 -660 Descending Albuquerque Center
09:50AM 33.4825 -112.2078 181° South 231 266 4,600 -960 Descending Albuquerque Center
09:51AM 33.4492 -112.1583 129° Southeast 190 219 3,600 -900 Descending Albuquerque Center
09:52AM 33.4406 -112.1075 101° East 160 184 2,800 -1,020 Descending Albuquerque Center
09:53AM 33.4411 -112.0622 89° East 141 162 1,600 -900 Descending Albuquerque Center
09:54AM 33.4408 -112.0236 90° East 120 138 1,000 -600 Descending Albuquerque Center
09:56AM 33.4343 -112.0116 270° West  Level Estimated